createdAt,value
2024-03-05T00:01:23.078Z,100215.71
2024-03-05T00:06:26.674Z,100220.35
2024-03-05T00:11:29.946Z,100217.83
2024-03-05T00:16:33.419Z,100212.84
2024-03-05T00:21:36.711Z,100206.89
2024-03-05T00:26:40.136Z,100211.67
2024-03-05T00:31:43.466Z,100214.48
2024-03-05T00:36:46.955Z,100220.78
2024-03-05T00:41:50.155Z,100218.04
2024-03-05T00:46:54.368Z,100210.30
2024-03-05T00:51:57.598Z,100214.83
2024-03-05T00:57:00.710Z,100217.10
2024-03-05T01:02:04.099Z,100219.26
2024-03-05T01:07:07.623Z,100219.84
2024-03-05T01:12:11.039Z,100218.08
2024-03-05T01:17:16.223Z,100222.23
2024-03-05T01:22:19.343Z,100220.05
2024-03-05T01:27:23.224Z,100218.08
2024-03-05T01:32:26.564Z,100214.20
2024-03-05T01:37:29.681Z,100221.58
2024-03-05T01:42:33.570Z,100216.36
2024-03-05T01:47:38.422Z,100220.61
2024-03-05T01:52:42.395Z,100218.36
2024-03-05T01:57:48.447Z,100220.08
2024-03-05T02:02:52.044Z,100211.60
2024-03-05T02:07:55.561Z,100209.23
2024-03-05T02:12:58.769Z,100212.45
2024-03-05T02:18:02.223Z,100212.66
2024-03-05T02:23:05.488Z,100220.40
2024-03-05T02:28:09.918Z,100225.54
2024-03-05T02:33:14.711Z,100219.10
2024-03-05T02:38:17.870Z,100217.14
2024-03-05T02:43:22.454Z,100213.83
2024-03-05T02:48:25.720Z,100218.65
2024-03-05T02:53:29.031Z,100215.21
2024-03-05T02:58:32.503Z,100223.59
2024-03-05T03:03:36.432Z,100225.67
2024-03-05T03:08:39.678Z,100226.07
2024-03-05T03:13:43.084Z,100228.01
2024-03-05T03:18:46.259Z,100231.67
2024-03-05T03:23:50.127Z,100232.56
2024-03-05T03:28:54.105Z,100230.54
2024-03-05T03:33:57.453Z,100232.81
2024-03-05T03:39:00.487Z,100234.35
2024-03-05T03:44:03.668Z,100231.39
2024-03-05T03:49:07.089Z,100236.71
2024-03-05T03:54:10.201Z,100231.55
2024-03-05T03:59:14.618Z,100230.29
2024-03-05T04:04:17.863Z,100228.79
2024-03-05T04:09:21.253Z,100224.21
2024-03-05T04:14:24.395Z,100226.14
2024-03-05T04:19:27.683Z,100225.25
2024-03-05T04:24:32.534Z,100222.02
2024-03-05T04:29:35.823Z,100217.32
2024-03-05T04:34:43.983Z,100224.09
2024-03-05T04:39:47.963Z,100222.58
2024-03-05T04:44:51.287Z,100224.26
2024-03-05T04:49:54.894Z,100228.63
2024-03-05T04:54:58.616Z,100230.83
2024-03-05T05:00:01.721Z,100229.58
2024-03-05T05:05:05.484Z,100229.73
2024-03-05T05:10:09.369Z,100226.80
2024-03-05T05:15:13.911Z,100229.46
2024-03-05T05:20:17.358Z,100225.10
2024-03-05T05:25:25.298Z,100231.71
2024-03-05T05:30:28.666Z,100231.58
2024-03-05T05:35:31.865Z,100235.51
2024-03-05T05:40:35.496Z,100236.31
2024-03-05T05:45:39.411Z,100237.05
2024-03-05T05:50:43.832Z,100238.81
2024-03-05T05:55:47.262Z,100241.05
2024-03-05T06:00:52.217Z,100239.92
2024-03-05T06:05:55.426Z,100236.50
2024-03-05T06:10:58.548Z,100232.92
2024-03-05T06:16:01.846Z,100237.54
2024-03-05T06:21:06.688Z,100244.65
2024-03-05T06:26:09.725Z,100245.83
2024-03-05T06:31:13.110Z,100246.07
2024-03-05T06:36:16.520Z,100248.81
2024-03-05T06:41:20.437Z,100252.63
2024-03-05T06:46:31.443Z,100251.84
2024-03-05T06:51:43.370Z,100255.90
2024-03-05T06:56:46.547Z,100255.11
2024-03-05T07:01:50.141Z,100255.61
2024-03-05T07:06:56.353Z,100251.65
2024-03-05T07:11:59.470Z,100251.54
2024-03-05T07:17:03.620Z,100254.23
2024-03-05T07:22:08.436Z,100258.08
2024-03-05T07:27:13.480Z,100259.61
2024-03-05T07:32:17.657Z,100261.04
2024-03-05T07:37:22.349Z,100258.65
2024-03-05T07:42:25.459Z,100263.94
2024-03-05T07:47:28.667Z,100256.60
2024-03-05T07:52:32.010Z,100260.25
2024-03-05T07:57:36.208Z,100257.19
2024-03-05T08:02:41.412Z,100260.92
2024-03-05T08:07:45.215Z,100262.27
2024-03-05T08:12:49.210Z,100261.27
2024-03-05T08:17:53.070Z,100262.71
2024-03-05T08:22:57.189Z,100265.65
2024-03-05T08:28:00.797Z,100268.43
2024-03-05T08:33:05.176Z,100268.14
2024-03-05T08:38:10.756Z,100265.54
2024-03-05T08:43:15.831Z,100259.39
2024-03-05T08:48:19.263Z,100267.20
2024-03-05T08:53:22.831Z,100272.51
2024-03-05T08:58:26.105Z,100274.27
2024-03-05T09:03:29.688Z,100282.19
2024-03-05T09:08:33.508Z,100289.48
2024-03-05T09:13:36.762Z,100288.09
2024-03-05T09:18:40.768Z,100292.34
2024-03-05T09:23:44.065Z,100292.86
2024-03-05T09:28:47.313Z,100291.02
2024-03-05T09:33:50.468Z,100295.73
2024-03-05T09:38:53.889Z,100302.23
2024-03-05T09:43:58.141Z,100304.51
2024-03-05T09:49:11.021Z,100302.00
2024-03-05T09:54:18.762Z,100306.30
2024-03-05T09:59:22.294Z,100313.72
2024-03-05T10:04:28.287Z,100314.98
2024-03-05T10:09:31.874Z,100313.16
2024-03-05T10:14:36.311Z,100318.89
2024-03-05T10:19:44.281Z,100322.84
2024-03-05T10:24:47.434Z,100326.36
2024-03-05T10:29:50.546Z,100329.63
2024-03-05T10:34:53.723Z,100333.40
2024-03-05T10:39:57.153Z,100332.09
2024-03-05T10:45:00.567Z,100338.25
2024-03-05T10:50:04.080Z,100339.23
2024-03-05T10:55:12.575Z,100337.65
2024-03-05T11:00:16.490Z,100338.48
2024-03-05T11:05:20.180Z,100339.02
2024-03-05T11:10:26.045Z,100343.61
2024-03-05T11:15:29.646Z,100340.46
2024-03-05T11:20:42.379Z,100338.36
2024-03-05T11:25:50.387Z,100339.63
2024-03-05T11:31:28.989Z,100341.21
2024-03-05T11:36:35.690Z,100330.23
2024-03-05T11:41:40.082Z,100326.15
2024-03-05T11:46:53.699Z,100329.13
2024-03-05T11:51:58.564Z,100335.11
2024-03-05T11:57:02.357Z,100337.76
2024-03-05T12:02:16.860Z,100336.04
2024-03-05T12:07:20.395Z,100334.77
2024-03-05T12:12:24.504Z,100345.95
2024-03-05T12:17:27.652Z,100349.04
2024-03-05T12:22:31.254Z,100347.76
2024-03-05T12:27:35.760Z,100348.59
2024-03-05T12:32:39.580Z,100356.87
2024-03-05T12:37:42.926Z,100360.34
2024-03-05T12:42:53.378Z,100362.28
2024-03-05T12:47:59.286Z,100362.55
2024-03-05T12:53:04.648Z,100368.29
2024-03-05T12:58:10.288Z,100369.52
2024-03-05T13:03:14.701Z,100379.76
2024-03-05T13:08:18.056Z,100378.45
2024-03-05T13:13:21.517Z,100375.16
2024-03-05T13:18:24.625Z,100376.44
2024-03-05T13:23:27.838Z,100382.86
2024-03-05T13:28:31.164Z,100388.29
2024-03-05T13:33:34.357Z,100389.80
2024-03-05T13:38:37.973Z,100389.46
2024-03-05T13:43:41.018Z,100392.92
2024-03-05T13:48:44.429Z,100393.50
2024-03-05T13:53:49.659Z,100399.04
2024-03-05T13:58:52.982Z,100400.58
2024-03-05T14:03:57.652Z,100403.11
2024-03-05T14:09:01.829Z,100409.05
2024-03-05T14:14:05.544Z,100407.05
2024-03-05T14:19:09.170Z,100409.52
2024-03-05T14:24:14.246Z,100409.32
2024-03-05T14:29:17.427Z,100419.25
2024-03-05T14:34:22.875Z,100426.27
2024-03-05T14:39:26.300Z,100428.86
2024-03-05T14:44:29.505Z,100435.70
2024-03-05T14:49:32.882Z,100438.52
2024-03-05T14:54:36.396Z,100437.81
2024-03-05T14:59:39.658Z,100445.93
2024-03-05T15:04:42.904Z,100448.74
2024-03-05T15:09:46.985Z,100458.58
2024-03-05T15:14:50.597Z,100468.68
2024-03-05T15:19:53.715Z,100475.09
2024-03-05T15:24:57.121Z,100481.64
2024-03-05T15:30:00.276Z,100484.16
2024-03-05T15:35:04.788Z,100484.25
2024-03-05T15:40:16.892Z,100494.05
2024-03-05T15:45:20.917Z,100496.59
2024-03-05T15:50:25.012Z,100499.24
2024-03-05T15:55:31.691Z,100507.43
2024-03-05T16:00:39.615Z,100514.89
2024-03-05T16:05:56.187Z,100520.23
2024-03-05T16:11:09.008Z,100528.74
2024-03-05T16:16:14.192Z,100543.43
2024-03-05T16:21:17.924Z,100549.42
2024-03-05T16:26:21.124Z,100553.27
2024-03-05T16:31:24.532Z,100558.78
2024-03-05T16:36:28.878Z,100563.84
2024-03-05T16:41:34.501Z,100566.59
2024-03-05T16:46:37.842Z,100573.89
2024-03-05T16:51:43.473Z,100581.90
2024-03-05T16:56:46.796Z,100591.29
2024-03-05T17:01:50.778Z,100597.52
2024-03-05T17:06:56.805Z,100600.88
2024-03-05T17:12:01.884Z,100605.88
2024-03-05T17:17:06.102Z,100608.42
2024-03-05T17:22:10.436Z,100609.83
2024-03-05T17:27:13.907Z,100614.61
2024-03-05T17:32:17.138Z,100620.92
2024-03-05T17:37:20.599Z,100630.84
2024-03-05T17:42:24.280Z,100631.95
2024-03-05T17:47:27.779Z,100640.98
2024-03-05T17:52:31.100Z,100647.59
2024-03-05T17:57:38.381Z,100652.56
2024-03-05T18:02:43.710Z,100655.94
2024-03-05T18:07:47.552Z,100662.46
2024-03-05T18:12:52.199Z,100664.77
2024-03-05T18:17:56.261Z,100665.14
2024-03-05T18:23:01.729Z,100672.77
2024-03-05T18:28:06.080Z,100672.82
2024-03-05T18:33:13.053Z,100673.02
2024-03-05T18:38:24.846Z,100677.41
2024-03-05T18:43:33.823Z,100680.73
2024-03-05T18:48:37.259Z,100684.23
2024-03-05T18:53:46.588Z,100688.90
2024-03-05T18:58:55.865Z,100696.59
2024-03-05T19:04:05.323Z,100697.08
2024-03-05T19:09:10.428Z,100703.73
2024-03-05T19:14:14.076Z,100704.88
2024-03-05T19:19:17.549Z,100706.55
2024-03-05T19:24:21.054Z,100709.48
2024-03-05T19:29:24.741Z,100714.39
2024-03-05T19:34:28.535Z,100716.68
2024-03-05T19:39:32.222Z,100721.27
2024-03-05T19:44:38.917Z,100721.61
2024-03-05T19:49:44.899Z,100723.89
2024-03-05T19:55:06.018Z,100725.42
2024-03-05T20:00:20.595Z,100728.52
2024-03-05T20:05:27.883Z,100729.16
2024-03-05T20:10:31.743Z,100725.41
2024-03-05T20:15:35.593Z,100723.73
2024-03-05T20:20:39.856Z,100726.70
2024-03-05T20:25:43.314Z,100726.09
2024-03-05T20:30:47.828Z,100728.17
2024-03-05T20:35:51.965Z,100727.97
2024-03-05T20:40:56.219Z,100730.04
2024-03-05T20:45:59.407Z,100731.41
2024-03-05T20:51:04.862Z,100738.89
2024-03-05T20:56:10.001Z,100738.40
2024-03-05T21:01:13.766Z,100744.05
2024-03-05T21:06:17.198Z,100752.41
2024-03-05T21:11:21.395Z,100754.10
2024-03-05T21:16:25.209Z,100758.38
2024-03-05T21:21:29.643Z,100760.17
2024-03-05T21:26:53.247Z,100761.16
2024-03-05T21:31:57.585Z,100760.95
2024-03-05T21:37:01.516Z,100756.77
2024-03-05T21:42:05.507Z,100762.31
2024-03-05T21:47:09.396Z,100770.52
2024-03-05T21:52:13.763Z,100770.03
2024-03-05T21:57:16.744Z,100769.35
2024-03-05T22:02:24.538Z,100768.00
2024-03-05T22:07:30.696Z,100772.75
2024-03-05T22:12:38.621Z,100777.02
2024-03-05T22:17:43.279Z,100782.48
2024-03-05T22:22:48.028Z,100785.45
2024-03-05T22:27:52.331Z,100789.10
2024-03-05T22:32:56.973Z,100788.86
2024-03-05T22:38:00.310Z,100791.42
2024-03-05T22:43:08.244Z,100798.33
2024-03-05T22:48:11.887Z,100797.60
2024-03-05T22:53:15.891Z,100799.58
2024-03-05T22:58:19.647Z,100801.52
2024-03-05T23:03:23.609Z,100802.35
2024-03-05T23:08:26.885Z,100801.96
2024-03-05T23:13:30.728Z,100805.42
2024-03-05T23:18:34.655Z,100805.17
2024-03-05T23:23:39.575Z,100804.77
2024-03-05T23:28:42.835Z,100808.42
2024-03-05T23:33:46.401Z,100815.80
2024-03-05T23:38:49.818Z,100820.54
2024-03-05T23:43:52.971Z,100820.29
2024-03-05T23:48:56.745Z,100820.08
2024-03-05T23:53:59.859Z,100823.77
2024-03-05T23:59:03.196Z,100825.01
